createdAt,value
2018-03-27T00:00:23.200Z,8.13
2018-03-27T00:02:51.513Z,7.87
2018-03-27T00:05:20.413Z,6.70
2018-03-27T00:07:49.333Z,6.75
2018-03-27T00:10:17.852Z,6.65
2018-03-27T00:12:46.051Z,6.82
2018-03-27T00:15:14.981Z,6.82
2018-03-27T00:17:43.143Z,6.75
2018-03-27T00:20:11.288Z,6.40
2018-03-27T00:22:40.180Z,6.62
2018-03-27T00:25:09.441Z,5.68
2018-03-27T00:27:55.380Z,7.40
2018-03-27T00:30:41.516Z,6.25
2018-03-27T00:33:27.528Z,7.22
2018-03-27T00:36:14.654Z,7.70
2018-03-27T00:39:01.393Z,6.68
2018-03-27T00:44:55.727Z,5.70
2018-03-27T00:47:23.870Z,6.93
2018-03-27T00:49:52.014Z,6.95
2018-03-27T00:52:20.928Z,6.40
2018-03-27T00:54:49.111Z,6.10
2018-03-27T00:57:17.260Z,7.28
2018-03-27T00:59:46.214Z,6.78
2018-03-27T01:02:14.339Z,7.40
2018-03-27T01:04:42.468Z,6.85
2018-03-27T01:07:10.635Z,7.05
2018-03-27T01:09:38.764Z,6.72
2018-03-27T01:12:16.878Z,6.68
2018-03-27T01:14:45.040Z,6.40
2018-03-27T01:17:13.676Z,5.87
2018-03-27T01:19:41.796Z,5.85
2018-03-27T01:22:09.949Z,6.47
2018-03-27T01:24:38.840Z,7.10
2018-03-27T01:27:07.732Z,5.55
2018-03-27T01:29:36.649Z,6.57
2018-03-27T01:32:04.793Z,6.80
2018-03-27T01:34:33.713Z,6.62
2018-03-27T01:37:01.888Z,6.15
2018-03-27T01:39:30.023Z,7.28
2018-03-27T01:41:58.171Z,7.00
2018-03-27T01:44:26.288Z,6.47
2018-03-27T01:46:54.487Z,6.90
2018-03-27T01:49:22.641Z,6.68
2018-03-27T01:51:50.805Z,6.65
2018-03-27T01:54:18.932Z,6.70
2018-03-27T01:56:47.071Z,6.55
2018-03-27T01:59:15.223Z,7.00
2018-03-27T02:01:44.184Z,6.72
2018-03-27T02:04:12.308Z,5.85
2018-03-27T02:06:40.667Z,6.32
2018-03-27T02:09:08.796Z,5.87
2018-03-27T02:11:42.658Z,6.70
2018-03-27T02:14:16.428Z,6.60
2018-03-27T02:16:50.876Z,5.55
2018-03-27T02:19:24.528Z,6.45
2018-03-27T02:21:52.086Z,6.15
2018-03-27T02:24:20.215Z,5.60
2018-03-27T02:26:48.381Z,5.95
2018-03-27T02:29:16.520Z,6.45
2018-03-27T02:31:45.444Z,5.97
2018-03-27T02:34:13.584Z,6.43
2018-03-27T02:36:42.498Z,6.37
2018-03-27T02:39:10.643Z,6.62
2018-03-27T02:41:39.533Z,6.05
2018-03-27T02:44:08.568Z,6.87
2018-03-27T02:46:36.753Z,6.30
2018-03-27T02:49:04.921Z,6.25
2018-03-27T02:51:33.093Z,6.12
2018-03-27T02:54:01.227Z,6.75
2018-03-27T02:56:30.119Z,6.45
2018-03-27T02:58:59.021Z,6.55
2018-03-27T03:01:27.183Z,6.37
2018-03-27T03:03:56.068Z,6.20
2018-03-27T03:06:24.964Z,6.60
2018-03-27T03:08:53.337Z,5.82
2018-03-27T03:11:22.223Z,7.10
2018-03-27T03:13:51.124Z,7.12
2018-03-27T03:16:19.256Z,6.50
2018-03-27T03:18:47.378Z,7.50
2018-03-27T03:21:15.533Z,6.10
2018-03-27T03:23:44.423Z,6.53
2018-03-27T03:26:13.305Z,7.30
2018-03-27T03:28:42.324Z,6.75
2018-03-27T03:31:10.498Z,6.82
2018-03-27T03:33:38.656Z,6.70
2018-03-27T03:36:06.771Z,6.25
2018-03-27T03:38:34.924Z,6.85
2018-03-27T03:41:03.075Z,6.57
2018-03-27T03:43:31.843Z,7.45
2018-03-27T03:46:00.808Z,7.97
2018-03-27T03:48:28.933Z,7.32
2018-03-27T03:50:57.628Z,6.47
2018-03-27T03:53:25.764Z,6.07
2018-03-27T03:55:54.689Z,7.03
2018-03-27T03:58:22.862Z,7.00
2018-03-27T04:00:51.019Z,6.37
2018-03-27T04:03:19.141Z,8.18
2018-03-27T04:05:47.288Z,7.28
2018-03-27T04:08:15.416Z,8.20
2018-03-27T04:10:44.308Z,8.05
2018-03-27T04:13:13.204Z,6.97
2018-03-27T04:15:42.142Z,7.05
2018-03-27T04:18:10.315Z,6.93
2018-03-27T04:20:38.449Z,7.28
2018-03-27T04:23:06.576Z,7.25
2018-03-27T04:25:34.728Z,6.93
2018-03-27T04:28:02.858Z,7.95
2018-03-27T04:30:30.972Z,7.45
2018-03-27T04:32:59.142Z,6.80
2018-03-27T04:35:27.259Z,7.70
2018-03-27T04:37:56.144Z,7.32
2018-03-27T04:40:24.306Z,7.43
2018-03-27T04:42:52.893Z,7.05
2018-03-27T04:45:21.016Z,8.23
2018-03-27T04:47:49.156Z,7.25
2018-03-27T04:50:18.062Z,7.87
2018-03-27T04:52:46.177Z,8.77
2018-03-27T04:55:14.308Z,8.23
2018-03-27T04:57:42.456Z,7.10
2018-03-27T05:00:11.374Z,8.65
2018-03-27T05:02:39.488Z,8.32
2018-03-27T05:05:07.703Z,8.23
2018-03-27T05:07:35.838Z,10.27
2018-03-27T05:10:04.067Z,7.93
2018-03-27T05:12:32.246Z,8.82
2018-03-27T05:15:00.367Z,9.13
2018-03-27T05:17:28.518Z,9.55
2018-03-27T05:19:56.641Z,10.07
2018-03-27T05:22:25.552Z,9.13
2018-03-27T05:24:53.757Z,9.60
2018-03-27T05:27:21.884Z,10.27
2018-03-27T05:29:50.007Z,9.30
2018-03-27T05:32:18.147Z,9.45
2018-03-27T05:34:46.263Z,8.30
2018-03-27T05:37:14.501Z,9.60
2018-03-27T05:39:42.671Z,10.02
2018-03-27T05:42:10.976Z,8.68
2018-03-27T05:44:39.099Z,9.77
2018-03-27T05:47:07.256Z,8.95
2018-03-27T05:49:35.467Z,8.77
2018-03-27T05:52:03.587Z,9.77
2018-03-27T05:54:32.479Z,9.38
2018-03-27T05:57:01.405Z,10.20
2018-03-27T05:59:29.526Z,9.70
2018-03-27T06:01:57.657Z,11.70
2018-03-27T06:04:26.416Z,11.38
2018-03-27T06:06:54.615Z,12.77
2018-03-27T06:09:22.744Z,11.18
2018-03-27T06:11:51.635Z,11.80
2018-03-27T06:14:20.551Z,11.70
2018-03-27T06:16:48.896Z,12.45
2018-03-27T06:19:17.094Z,12.00
2018-03-27T06:21:45.226Z,12.32
2018-03-27T06:24:13.347Z,12.50
2018-03-27T06:26:41.543Z,11.90
2018-03-27T06:29:09.749Z,13.13
2018-03-27T06:31:37.845Z,12.95
2018-03-27T06:34:06.024Z,13.20
2018-03-27T06:36:34.932Z,13.52
2018-03-27T06:39:03.095Z,14.98
2018-03-27T06:41:31.256Z,16.33
2018-03-27T06:43:59.388Z,15.88
2018-03-27T06:46:27.519Z,15.95
2018-03-27T06:48:55.667Z,14.68
2018-03-27T06:51:24.564Z,15.93
2018-03-27T06:53:53.500Z,16.60
2018-03-27T06:56:21.625Z,17.08
2018-03-27T06:58:50.516Z,16.80
2018-03-27T07:01:20.261Z,18.02
2018-03-27T07:03:48.399Z,19.37
2018-03-27T07:06:17.328Z,15.70
2018-03-27T07:08:45.489Z,16.58
2018-03-27T07:11:13.612Z,14.38
2018-03-27T07:13:41.751Z,15.15
2018-03-27T07:16:09.903Z,14.05
2018-03-27T07:18:38.040Z,14.68
2018-03-27T07:21:06.948Z,16.33
2018-03-27T07:23:35.106Z,15.38
2018-03-27T07:26:04.011Z,16.98
2018-03-27T07:28:32.151Z,14.52
2018-03-27T07:31:00.344Z,13.35
2018-03-27T07:33:28.540Z,12.98
2018-03-27T07:35:56.688Z,12.63
2018-03-27T07:38:25.600Z,12.05
2018-03-27T07:40:53.764Z,12.05
2018-03-27T07:43:21.952Z,10.60
2018-03-27T07:45:50.088Z,11.07
2018-03-27T07:48:19.025Z,10.68
2018-03-27T07:50:47.151Z,12.75
2018-03-27T07:53:16.045Z,10.15
2018-03-27T07:55:45.156Z,11.02
2018-03-27T07:58:13.338Z,9.90
2018-03-27T08:00:42.225Z,8.82
2018-03-27T08:03:10.383Z,10.23
2018-03-27T08:05:38.532Z,9.98
2018-03-27T08:08:06.760Z,10.38
2018-03-27T08:10:34.909Z,10.30
2018-03-27T08:13:03.062Z,9.85
2018-03-27T08:15:31.973Z,10.00
2018-03-27T08:18:00.148Z,9.60
2018-03-27T08:20:28.287Z,10.10
2018-03-27T08:22:57.181Z,10.13
2018-03-27T08:25:26.236Z,8.90
2018-03-27T08:27:54.377Z,9.47
2018-03-27T08:30:22.517Z,9.87
2018-03-27T08:32:51.436Z,8.63
2018-03-27T08:35:20.131Z,9.10
2018-03-27T08:37:48.272Z,9.33
2018-03-27T08:40:17.295Z,9.40
2018-03-27T08:42:45.424Z,9.97
2018-03-27T08:45:13.548Z,10.10
2018-03-27T08:47:41.718Z,10.10
2018-03-27T08:50:09.852Z,10.10
2018-03-27T08:52:38.755Z,9.73
2018-03-27T08:55:07.673Z,10.13
2018-03-27T08:57:35.860Z,10.00
2018-03-27T09:00:03.999Z,9.93
2018-03-27T09:02:32.125Z,9.10
2018-03-27T09:05:10.215Z,10.23
2018-03-27T09:07:38.339Z,9.67
2018-03-27T09:10:07.533Z,9.93
2018-03-27T09:12:36.463Z,9.70
2018-03-27T09:15:04.742Z,10.27
2018-03-27T09:17:32.904Z,10.10
2018-03-27T09:20:01.067Z,11.20
2018-03-27T09:22:29.511Z,10.65
2018-03-27T09:24:58.425Z,9.95
2018-03-27T09:27:26.579Z,12.80
2018-03-27T09:29:55.493Z,9.80
2018-03-27T09:32:23.631Z,10.15
2018-03-27T09:34:53.030Z,9.50
2018-03-27T09:37:21.179Z,10.20
2018-03-27T09:39:49.307Z,9.90
2018-03-27T09:42:17.506Z,9.37
2018-03-27T09:44:45.637Z,9.63
2018-03-27T09:47:14.532Z,9.97
2018-03-27T09:49:43.468Z,10.70
2018-03-27T09:52:11.617Z,10.93
2018-03-27T09:54:39.901Z,10.60
2018-03-27T09:57:08.064Z,9.27
2018-03-27T09:59:37.026Z,9.10
2018-03-27T10:02:05.271Z,10.17
2018-03-27T10:04:33.928Z,10.73
2018-03-27T10:07:02.228Z,9.00
2018-03-27T10:09:30.413Z,9.07
2018-03-27T10:11:58.549Z,8.30
2018-03-27T10:14:26.683Z,8.63
2018-03-27T10:16:56.524Z,8.00
2018-03-27T10:22:56.992Z,8.67
2018-03-27T10:25:25.184Z,8.43
2018-03-27T10:27:53.307Z,10.50
2018-03-27T10:30:21.462Z,9.60
2018-03-27T10:32:50.363Z,7.97
2018-03-27T10:35:18.515Z,8.80
2018-03-27T10:37:47.417Z,10.73
2018-03-27T10:40:16.313Z,7.93
2018-03-27T10:42:45.244Z,6.63
2018-03-27T10:45:13.377Z,7.40
2018-03-27T10:47:41.515Z,9.47
2018-03-27T10:50:09.703Z,7.97
2018-03-27T10:52:38.611Z,9.10
2018-03-27T10:55:07.510Z,7.00
2018-03-27T10:57:35.656Z,7.23
2018-03-27T11:00:04.567Z,7.10
2018-03-27T11:02:32.688Z,8.37
2018-03-27T11:05:00.853Z,7.20
2018-03-27T11:07:28.988Z,7.07
2018-03-27T11:09:57.187Z,6.80
2018-03-27T11:12:25.306Z,6.97
2018-03-27T11:14:54.210Z,8.27
2018-03-27T11:17:23.119Z,6.60
2018-03-27T11:19:51.279Z,7.70
2018-03-27T11:22:19.412Z,7.47
2018-03-27T11:24:47.568Z,6.87
2018-03-27T11:27:15.756Z,7.30
2018-03-27T11:29:43.983Z,8.07
2018-03-27T11:32:12.695Z,6.53
2018-03-27T11:34:40.852Z,7.80
2018-03-27T11:37:09.347Z,7.73
2018-03-27T11:39:37.504Z,7.37
2018-03-27T11:42:06.063Z,7.03
2018-03-27T11:44:34.199Z,7.27
2018-03-27T11:47:02.936Z,7.07
2018-03-27T11:49:31.067Z,7.43
2018-03-27T11:51:59.193Z,7.27
2018-03-27T11:54:27.351Z,7.20
2018-03-27T11:56:55.479Z,7.33
2018-03-27T11:59:23.719Z,8.70
2018-03-27T12:01:51.896Z,7.00
2018-03-27T12:04:20.032Z,7.63
2018-03-27T12:06:48.215Z,7.40
2018-03-27T12:09:16.359Z,7.63
2018-03-27T12:11:45.264Z,7.37
2018-03-27T12:14:13.424Z,7.80
2018-03-27T12:16:42.331Z,7.63
2018-03-27T12:19:10.460Z,7.10
2018-03-27T12:21:38.626Z,7.97
2018-03-27T12:24:06.755Z,7.73
2018-03-27T12:26:34.882Z,9.23
2018-03-27T12:29:03.033Z,8.40
2018-03-27T12:31:31.159Z,7.67
2018-03-27T12:33:59.288Z,7.80
2018-03-27T12:36:27.455Z,7.87
2018-03-27T12:38:55.591Z,7.87
2018-03-27T12:41:23.724Z,9.50
2018-03-27T12:43:51.871Z,8.40
2018-03-27T12:46:20.031Z,7.97
2018-03-27T12:48:48.188Z,7.23
2018-03-27T12:51:16.360Z,8.90
2018-03-27T12:53:44.492Z,8.23
2018-03-27T12:56:13.411Z,7.87
2018-03-27T12:58:41.558Z,7.27
2018-03-27T13:01:10.466Z,7.80
2018-03-27T13:03:38.641Z,8.37
2018-03-27T13:06:06.773Z,8.70
2018-03-27T13:08:34.909Z,15.63
2018-03-27T13:13:39.735Z,7.77
2018-03-27T13:16:07.911Z,8.37
2018-03-27T13:18:36.087Z,8.97
2018-03-27T13:21:04.251Z,9.33
2018-03-27T13:23:32.398Z,8.10
2018-03-27T13:26:01.300Z,8.93
2018-03-27T13:28:30.212Z,8.37
2018-03-27T13:30:58.344Z,13.37
2018-03-27T13:33:27.252Z,10.40
2018-03-27T13:35:56.169Z,8.80
2018-03-27T13:38:24.299Z,9.57
2018-03-27T13:40:53.196Z,14.00
2018-03-27T13:43:22.115Z,11.27
2018-03-27T13:45:50.256Z,8.57
2018-03-27T13:48:19.158Z,7.13
2018-03-27T13:50:48.081Z,25.67
2018-03-27T13:53:16.215Z,8.37
2018-03-27T13:55:45.103Z,17.33
2018-03-27T13:58:14.080Z,9.17
2018-03-27T14:00:42.240Z,7.70
2018-03-27T14:03:11.757Z,8.60
2018-03-27T14:05:39.892Z,12.33
2018-03-27T14:08:08.023Z,8.43
2018-03-27T14:10:36.956Z,10.03
2018-03-27T14:13:05.113Z,8.10
2018-03-27T14:15:33.277Z,9.40
2018-03-27T14:18:01.433Z,7.57
2018-03-27T14:20:29.618Z,7.50
2018-03-27T14:22:57.743Z,8.70
2018-03-27T14:25:25.963Z,7.47
2018-03-27T14:27:54.135Z,9.67
2018-03-27T14:30:22.272Z,9.10
2018-03-27T14:32:50.433Z,11.77
2018-03-27T14:35:18.551Z,19.07
2018-03-27T14:37:46.671Z,7.97
2018-03-27T14:40:14.801Z,10.50
2018-03-27T14:42:42.943Z,7.60
2018-03-27T14:45:11.891Z,10.30
2018-03-27T14:47:40.344Z,9.37
2018-03-27T14:50:08.465Z,10.47
2018-03-27T14:52:36.619Z,7.20
2018-03-27T14:55:04.760Z,7.60
2018-03-27T14:57:32.883Z,6.23
2018-03-27T15:00:01.042Z,5.93
2018-03-27T15:02:29.176Z,6.00
2018-03-27T15:04:57.334Z,6.70
2018-03-27T15:07:26.243Z,5.40
2018-03-27T15:09:54.383Z,4.73
2018-03-27T15:12:23.276Z,5.67
2018-03-27T15:14:52.197Z,5.40
2018-03-27T15:17:20.324Z,7.30
2018-03-27T15:19:48.515Z,5.77
2018-03-27T15:22:17.422Z,5.20
2018-03-27T15:24:45.548Z,6.40
2018-03-27T15:27:13.673Z,5.73
2018-03-27T15:29:41.826Z,5.37
2018-03-27T15:32:09.964Z,5.77
2018-03-27T15:34:38.204Z,6.00
2018-03-27T15:37:06.352Z,6.50
2018-03-27T15:39:35.245Z,6.00
2018-03-27T15:42:03.419Z,6.40
2018-03-27T15:44:31.585Z,6.53
2018-03-27T15:46:59.715Z,5.03
2018-03-27T15:49:27.862Z,6.03
2018-03-27T15:51:56.111Z,5.80
2018-03-27T15:54:24.237Z,7.33
2018-03-27T15:56:52.458Z,8.00
2018-03-27T15:59:20.635Z,6.50
2018-03-27T16:01:48.767Z,9.90
2018-03-27T16:04:16.899Z,5.67
2018-03-27T16:06:45.059Z,6.17
2018-03-27T16:09:13.199Z,6.00
2018-03-27T16:11:42.088Z,10.30
2018-03-27T16:14:11.008Z,11.13
2018-03-27T16:16:39.137Z,11.60
2018-03-27T16:19:07.263Z,11.53
2018-03-27T16:21:35.633Z,8.97
2018-03-27T16:24:03.754Z,7.90
2018-03-27T16:26:32.017Z,7.20
2018-03-27T16:29:01.279Z,9.20
2018-03-27T16:31:29.395Z,7.63
2018-03-27T16:33:57.523Z,13.03
2018-03-27T16:36:25.672Z,9.13
2018-03-27T16:38:53.802Z,8.40
2018-03-27T16:41:22.459Z,8.57
2018-03-27T16:43:51.192Z,8.27
2018-03-27T16:46:20.199Z,11.33
2018-03-27T16:48:49.163Z,10.00
2018-03-27T16:51:17.275Z,10.93
2018-03-27T16:53:45.691Z,10.20
2018-03-27T16:56:14.067Z,8.57
2018-03-27T16:58:42.254Z,10.70
2018-03-27T17:01:10.527Z,6.63
2018-03-27T17:03:38.842Z,7.03
2018-03-27T17:06:07.022Z,7.27
2018-03-27T17:08:35.154Z,8.40
2018-03-27T17:11:03.334Z,10.30
2018-03-27T17:13:31.523Z,9.40
2018-03-27T17:16:00.422Z,8.40
2018-03-27T17:18:29.068Z,7.70
2018-03-27T17:20:57.208Z,9.63
2018-03-27T17:23:25.344Z,6.50
2018-03-27T17:25:54.274Z,7.63
2018-03-27T17:28:22.551Z,6.40
2018-03-27T17:30:50.679Z,7.10
2018-03-27T17:33:19.618Z,6.62
2018-03-27T17:35:47.748Z,6.87
2018-03-27T17:38:15.890Z,6.30
2018-03-27T17:40:44.044Z,7.30
2018-03-27T17:43:12.165Z,5.75
2018-03-27T17:45:41.055Z,5.07
2018-03-27T17:48:09.971Z,5.50
2018-03-27T17:50:38.091Z,5.62
2018-03-27T17:53:06.415Z,5.75
2018-03-27T17:55:34.598Z,4.53
2018-03-27T17:58:02.715Z,4.70
2018-03-27T18:00:30.889Z,4.50
2018-03-27T18:02:59.380Z,4.65
2018-03-27T18:05:28.267Z,5.07
2018-03-27T18:07:57.203Z,5.05
2018-03-27T18:10:25.395Z,5.45
2018-03-27T18:12:54.020Z,5.50
2018-03-27T18:15:22.923Z,5.82
2018-03-27T18:17:51.826Z,4.75
2018-03-27T18:20:19.952Z,4.80
2018-03-27T18:22:48.887Z,5.35
2018-03-27T18:25:17.003Z,5.10
2018-03-27T18:27:45.125Z,5.60
2018-03-27T18:30:13.277Z,4.62
2018-03-27T18:32:42.181Z,5.72
2018-03-27T18:35:11.099Z,5.60
2018-03-27T18:37:39.970Z,5.47
2018-03-27T18:40:08.164Z,6.65
2018-03-27T18:42:36.301Z,6.12
2018-03-27T18:45:05.365Z,8.23
2018-03-27T18:47:33.505Z,8.85
2018-03-27T18:50:01.670Z,13.23
2018-03-27T18:52:29.945Z,12.35
2018-03-27T18:54:58.133Z,14.82
2018-03-27T18:57:26.277Z,13.95
2018-03-27T18:59:54.437Z,11.60
2018-03-27T19:02:23.342Z,11.00
2018-03-27T19:04:51.492Z,10.85
2018-03-27T19:07:20.470Z,10.40
2018-03-27T19:09:48.617Z,10.32
2018-03-27T19:12:16.764Z,11.23
2018-03-27T19:14:45.550Z,9.70
2018-03-27T19:17:13.889Z,10.20
2018-03-27T19:19:42.790Z,10.30
2018-03-27T19:22:11.721Z,10.38
2018-03-27T19:24:39.872Z,9.50
2018-03-27T19:27:08.077Z,7.80
2018-03-27T19:29:36.229Z,5.43
2018-03-27T19:32:04.383Z,5.90
2018-03-27T19:34:32.529Z,4.93
2018-03-27T19:37:01.838Z,4.57
2018-03-27T19:39:30.790Z,5.12
2018-03-27T19:41:58.943Z,6.10
2018-03-27T19:44:27.103Z,6.62
2018-03-27T19:46:55.256Z,6.97
2018-03-27T19:49:23.429Z,15.23
2018-03-27T19:51:51.630Z,12.25
2018-03-27T19:54:19.767Z,32.00
2018-03-27T19:56:48.891Z,66.05
2018-03-27T19:59:17.071Z,28.02
2018-03-27T20:01:45.243Z,15.57
2018-03-27T20:04:13.384Z,12.25
2018-03-27T20:06:42.285Z,13.75
2018-03-27T20:09:10.514Z,9.77
2018-03-27T20:11:38.637Z,15.15
2018-03-27T20:14:06.933Z,15.07
2018-03-27T20:16:35.059Z,7.75
2018-03-27T20:19:03.961Z,9.48
2018-03-27T20:21:32.134Z,8.75
2018-03-27T20:24:00.273Z,8.32
2018-03-27T20:26:28.398Z,8.95
2018-03-27T20:28:56.564Z,9.85
2018-03-27T20:31:24.692Z,6.10
2018-03-27T20:33:52.924Z,6.10
2018-03-27T20:36:21.188Z,5.30
2018-03-27T20:38:49.319Z,7.20
2018-03-27T20:41:18.388Z,7.32
2018-03-27T20:43:46.553Z,6.50
2018-03-27T20:46:14.695Z,7.45
2018-03-27T20:48:42.821Z,7.28
2018-03-27T20:51:11.046Z,7.20
2018-03-27T20:53:39.188Z,6.80
2018-03-27T20:56:08.114Z,6.68
2018-03-27T20:58:36.268Z,4.68
2018-03-27T21:01:04.387Z,7.78
2018-03-27T21:03:32.528Z,6.05
2018-03-27T21:06:00.685Z,6.55
2018-03-27T21:08:28.945Z,4.70
2018-03-27T21:10:57.830Z,5.90
2018-03-27T21:13:26.756Z,5.55
2018-03-27T21:15:54.896Z,6.15
2018-03-27T21:18:23.786Z,4.95
2018-03-27T21:20:52.676Z,5.30
2018-03-27T21:23:21.608Z,5.82
2018-03-27T21:25:49.815Z,7.65
2018-03-27T21:28:17.933Z,6.30
2018-03-27T21:30:46.141Z,7.53
2018-03-27T21:33:14.267Z,7.40
2018-03-27T21:35:42.392Z,5.10
2018-03-27T21:38:10.925Z,6.62
2018-03-27T21:40:39.060Z,4.80
2018-03-27T21:43:07.280Z,5.60
2018-03-27T21:45:35.481Z,7.82
2018-03-27T21:48:03.608Z,6.25
2018-03-27T21:50:33.304Z,5.75
2018-03-27T21:53:02.237Z,7.35
2018-03-27T21:55:30.364Z,5.60
2018-03-27T21:57:59.256Z,6.40
2018-03-27T22:00:28.173Z,5.35
2018-03-27T22:02:56.291Z,6.45
2018-03-27T22:05:24.403Z,6.25
2018-03-27T22:07:53.401Z,7.03
2018-03-27T22:10:21.528Z,5.05
2018-03-27T22:12:50.271Z,6.07
2018-03-27T22:15:18.445Z,5.55
2018-03-27T22:17:46.565Z,5.60
2018-03-27T22:20:14.736Z,8.50
2018-03-27T22:22:42.855Z,7.30
2018-03-27T22:25:11.564Z,6.53
2018-03-27T22:27:39.740Z,5.10
2018-03-27T22:30:07.898Z,5.57
2018-03-27T22:32:36.069Z,6.15
2018-03-27T22:35:04.940Z,5.18
2018-03-27T22:37:33.465Z,5.22
2018-03-27T22:40:02.583Z,5.10
2018-03-27T22:42:30.751Z,5.78
2018-03-27T22:44:58.900Z,5.47
2018-03-27T22:47:27.030Z,6.53
2018-03-27T22:49:56.351Z,5.75
2018-03-27T22:52:24.553Z,6.18
2018-03-27T22:54:52.683Z,6.78
2018-03-27T22:57:20.872Z,9.18
2018-03-27T22:59:48.990Z,7.37
2018-03-27T23:02:17.110Z,5.87
2018-03-27T23:04:45.243Z,7.95
2018-03-27T23:07:14.098Z,8.32
2018-03-27T23:09:42.269Z,7.57
2018-03-27T23:12:10.585Z,6.45
2018-03-27T23:14:39.843Z,6.55
2018-03-27T23:17:08.112Z,7.43
2018-03-27T23:19:36.240Z,8.73
2018-03-27T23:22:05.292Z,8.18
2018-03-27T23:24:33.462Z,8.82
2018-03-27T23:27:01.576Z,7.47
2018-03-27T23:29:30.487Z,7.00
2018-03-27T23:31:58.632Z,6.62
2018-03-27T23:34:27.564Z,7.20
2018-03-27T23:36:55.681Z,7.25
2018-03-27T23:39:23.946Z,7.22
2018-03-27T23:41:52.081Z,7.40
2018-03-27T23:44:20.223Z,7.10
2018-03-27T23:46:49.134Z,6.55
2018-03-27T23:49:17.257Z,7.00
2018-03-27T23:51:45.391Z,7.93
2018-03-27T23:54:14.155Z,6.90
2018-03-27T23:56:42.276Z,7.47
2018-03-27T23:59:10.402Z,7.82
